sensor_id;sensor_type;location;lat;lon;timestamp;pressure;altitude;pressure_sealevel;temperature;humidity
6349;BME280;3207;42.648;23.406;2022-12-29T00:01:30;100588.78;;;6.34;nan
6349;BME280;3207;42.648;23.406;2022-12-29T00:03:58;100582.75;;;6.34;nan
6349;BME280;3207;42.648;23.406;2022-12-29T00:06:25;100579.38;;;6.32;nan
6349;BME280;3207;42.648;23.406;2022-12-29T00:08:52;100575.03;;;6.32;nan
6349;BME280;3207;42.648;23.406;2022-12-29T00:11:19;100575.88;;;6.33;nan
6349;BME280;3207;42.648;23.406;2022-12-29T00:13:47;100573.34;;;6.31;nan
6349;BME280;3207;42.648;23.406;2022-12-29T00:16:33;100572.56;;;6.29;nan
6349;BME280;3207;42.648;23.406;2022-12-29T00:19:01;100570.88;;;6.28;nan
6349;BME280;3207;42.648;23.406;2022-12-29T00:21:29;100563.88;;;6.30;nan
6349;BME280;3207;42.648;23.406;2022-12-29T00:24:16;100571.16;;;6.22;nan
6349;BME280;3207;42.648;23.406;2022-12-29T00:27:10;100562.72;;;6.17;nan
6349;BME280;3207;42.648;23.406;2022-12-29T00:29:55;100566.16;;;6.17;nan
6349;BME280;3207;42.648;23.406;2022-12-29T00:32:45;100559.34;;;6.15;nan
6349;BME280;3207;42.648;23.406;2022-12-29T00:35:30;100556.09;;;6.11;nan
6349;BME280;3207;42.648;23.406;2022-12-29T00:38:03;100551.88;;;6.09;nan
6349;BME280;3207;42.648;23.406;2022-12-29T00:40:49;100557.19;;;6.06;nan
6349;BME280;3207;42.648;23.406;2022-12-29T00:43:33;100557.19;;;6.06;nan
6349;BME280;3207;42.648;23.406;2022-12-29T00:46:18;100555.78;;;5.99;nan
6349;BME280;3207;42.648;23.406;2022-12-29T00:48:46;100564.34;;;6.01;nan
6349;BME280;3207;42.648;23.406;2022-12-29T00:51:30;100561.81;;;5.99;nan
6349;BME280;3207;42.648;23.406;2022-12-29T00:53:57;100562.00;;;5.95;nan
6349;BME280;3207;42.648;23.406;2022-12-29T00:56:24;100555.06;;;5.95;nan
6349;BME280;3207;42.648;23.406;2022-12-29T00:58:51;100520.69;;;5.71;nan
6349;BME280;3207;42.648;23.406;2022-12-29T01:01:18;100552.63;;;5.92;nan
6349;BME280;3207;42.648;23.406;2022-12-29T01:03:47;100555.47;;;5.86;nan
6349;BME280;3207;42.648;23.406;2022-12-29T01:06:14;100549.59;;;5.82;nan
6349;BME280;3207;42.648;23.406;2022-12-29T01:08:44;100548.88;;;5.79;nan
6349;BME280;3207;42.648;23.406;2022-12-29T01:11:12;100546.28;;;5.79;nan
6349;BME280;3207;42.648;23.406;2022-12-29T01:13:39;100537.59;;;5.80;nan
6349;BME280;3207;42.648;23.406;2022-12-29T01:16:06;100542.84;;;5.78;nan
6349;BME280;3207;42.648;23.406;2022-12-29T01:18:33;100544.66;;;5.76;nan
6349;BME280;3207;42.648;23.406;2022-12-29T01:21:03;100539.75;;;5.70;nan
6349;BME280;3207;42.648;23.406;2022-12-29T01:23:31;100542.34;;;5.70;nan
6349;BME280;3207;42.648;23.406;2022-12-29T01:26:08;100535.66;;;5.65;nan
6349;BME280;3207;42.648;23.406;2022-12-29T01:28:35;100547.47;;;5.72;nan
6349;BME280;3207;42.648;23.406;2022-12-29T01:31:04;100542.41;;;5.69;nan
6349;BME280;3207;42.648;23.406;2022-12-29T01:33:31;100537.91;;;5.72;nan
6349;BME280;3207;42.648;23.406;2022-12-29T01:36:07;100533.56;;;5.73;nan
6349;BME280;3207;42.648;23.406;2022-12-29T01:38:35;100533.00;;;5.66;nan
6349;BME280;3207;42.648;23.406;2022-12-29T01:41:03;100534.56;;;5.70;nan
6349;BME280;3207;42.648;23.406;2022-12-29T01:43:39;100520.88;;;5.67;nan
6349;BME280;3207;42.648;23.406;2022-12-29T01:46:13;100534.50;;;5.72;nan
6349;BME280;3207;42.648;23.406;2022-12-29T01:48:42;100524.94;;;5.72;nan
6349;BME280;3207;42.648;23.406;2022-12-29T01:51:11;100524.03;;;5.73;nan
6349;BME280;3207;42.648;23.406;2022-12-29T01:53:42;100512.91;;;5.71;nan
6349;BME280;3207;42.648;23.406;2022-12-29T01:56:11;100508.75;;;5.67;nan
6349;BME280;3207;42.648;23.406;2022-12-29T01:58:42;100517.03;;;5.75;nan
6349;BME280;3207;42.648;23.406;2022-12-29T02:01:11;100514.44;;;5.75;nan
6349;BME280;3207;42.648;23.406;2022-12-29T02:03:38;100507.56;;;5.74;nan
6349;BME280;3207;42.648;23.406;2022-12-29T02:06:08;100477.19;;;5.58;nan
6349;BME280;3207;42.648;23.406;2022-12-29T02:08:40;100508.34;;;5.76;nan
6349;BME280;3207;42.648;23.406;2022-12-29T02:11:07;100512.63;;;5.77;nan
6349;BME280;3207;42.648;23.406;2022-12-29T02:13:34;100502.19;;;5.79;nan
6349;BME280;3207;42.648;23.406;2022-12-29T02:16:09;100507.91;;;5.85;nan
6349;BME280;3207;42.648;23.406;2022-12-29T02:18:47;100506.00;;;5.91;nan
6349;BME280;3207;42.648;23.406;2022-12-29T02:21:43;100497.09;;;5.96;nan
6349;BME280;3207;42.648;23.406;2022-12-29T02:30:16;100474.31;;;6.03;nan
6349;BME280;3207;42.648;23.406;2022-12-29T02:32:54;100487.63;;;6.14;nan
6349;BME280;3207;42.648;23.406;2022-12-29T02:35:33;100483.69;;;6.24;nan
6349;BME280;3207;42.648;23.406;2022-12-29T02:38:11;100490.19;;;6.33;nan
6349;BME280;3207;42.648;23.406;2022-12-29T02:40:45;100495.22;;;6.36;nan
6349;BME280;3207;42.648;23.406;2022-12-29T02:43:21;100477.34;;;6.30;nan
6349;BME280;3207;42.648;23.406;2022-12-29T02:45:54;100492.34;;;6.42;nan
6349;BME280;3207;42.648;23.406;2022-12-29T02:48:25;100491.91;;;6.51;nan
6349;BME280;3207;42.648;23.406;2022-12-29T02:50:59;100430.22;;;6.20;nan
6349;BME280;3207;42.648;23.406;2022-12-29T02:53:28;100479.91;;;6.48;nan
6349;BME280;3207;42.648;23.406;2022-12-29T02:56:13;100477.63;;;6.59;nan
6349;BME280;3207;42.648;23.406;2022-12-29T02:58:40;100470.00;;;6.56;nan
6349;BME280;3207;42.648;23.406;2022-12-29T03:01:22;100480.94;;;6.63;nan
6349;BME280;3207;42.648;23.406;2022-12-29T03:04:07;100476.97;;;6.73;nan
6349;BME280;3207;42.648;23.406;2022-12-29T03:06:49;100477.81;;;6.74;nan
6349;BME280;3207;42.648;23.406;2022-12-29T03:09:28;100464.50;;;6.63;nan
6349;BME280;3207;42.648;23.406;2022-12-29T03:11:59;100470.16;;;6.53;nan
6349;BME280;3207;42.648;23.406;2022-12-29T03:14:44;100461.06;;;6.26;nan
6349;BME280;3207;42.648;23.406;2022-12-29T03:17:36;100463.06;;;6.21;nan
6349;BME280;3207;42.648;23.406;2022-12-29T03:20:11;100461.06;;;6.26;nan
6349;BME280;3207;42.648;23.406;2022-12-29T03:22:43;100464.44;;;6.28;nan
6349;BME280;3207;42.648;23.406;2022-12-29T03:25:15;100457.44;;;6.30;nan
6349;BME280;3207;42.648;23.406;2022-12-29T03:27:48;100451.00;;;6.37;nan
6349;BME280;3207;42.648;23.406;2022-12-29T03:30:16;100453.41;;;6.42;nan
6349;BME280;3207;42.648;23.406;2022-12-29T03:32:47;100449.81;;;6.44;nan
6349;BME280;3207;42.648;23.406;2022-12-29T03:35:20;100452.34;;;6.46;nan
6349;BME280;3207;42.648;23.406;2022-12-29T03:37:51;100446.47;;;6.42;nan
6349;BME280;3207;42.648;23.406;2022-12-29T03:40:21;100454.09;;;6.45;nan
6349;BME280;3207;42.648;23.406;2022-12-29T03:42:50;100434.59;;;6.37;nan
6349;BME280;3207;42.648;23.406;2022-12-29T03:45:18;100441.25;;;6.42;nan
6349;BME280;3207;42.648;23.406;2022-12-29T03:47:45;100443.41;;;6.34;nan
6349;BME280;3207;42.648;23.406;2022-12-29T03:50:13;100438.09;;;6.36;nan
6349;BME280;3207;42.648;23.406;2022-12-29T03:52:41;100438.94;;;6.36;nan
6349;BME280;3207;42.648;23.406;2022-12-29T03:55:08;100441.72;;;6.33;nan
6349;BME280;3207;42.648;23.406;2022-12-29T03:57:35;100441.00;;;6.30;nan
6349;BME280;3207;42.648;23.406;2022-12-29T04:00:03;100426.59;;;6.24;nan
6349;BME280;3207;42.648;23.406;2022-12-29T04:02:30;100425.81;;;6.22;nan
6349;BME280;3207;42.648;23.406;2022-12-29T04:04:57;100440.59;;;6.20;nan
6349;BME280;3207;42.648;23.406;2022-12-29T04:07:24;100436.47;;;6.16;nan
6349;BME280;3207;42.648;23.406;2022-12-29T04:09:52;100439.38;;;6.10;nan
6349;BME280;3207;42.648;23.406;2022-12-29T04:12:19;100438.91;;;6.02;nan
6349;BME280;3207;42.648;23.406;2022-12-29T04:14:46;100440.56;;;6.03;nan
6349;BME280;3207;42.648;23.406;2022-12-29T04:17:13;100427.75;;;6.00;nan
6349;BME280;3207;42.648;23.406;2022-12-29T04:19:39;100415.53;;;6.02;nan
6349;BME280;3207;42.648;23.406;2022-12-29T04:22:06;100434.31;;;6.07;nan
6349;BME280;3207;42.648;23.406;2022-12-29T04:24:33;100418.41;;;5.96;nan
6349;BME280;3207;42.648;23.406;2022-12-29T04:27:01;100425.91;;;6.02;nan
6349;BME280;3207;42.648;23.406;2022-12-29T04:29:28;100426.84;;;6.01;nan
6349;BME280;3207;42.648;23.406;2022-12-29T04:31:55;100414.13;;;5.95;nan
6349;BME280;3207;42.648;23.406;2022-12-29T04:34:22;100424.31;;;5.99;nan
6349;BME280;3207;42.648;23.406;2022-12-29T04:36:48;100426.06;;;5.99;nan
6349;BME280;3207;42.648;23.406;2022-12-29T04:39:15;100426.19;;;5.96;nan
6349;BME280;3207;42.648;23.406;2022-12-29T04:41:42;100425.41;;;5.94;nan
6349;BME280;3207;42.648;23.406;2022-12-29T04:44:10;100421.91;;;5.95;nan
6349;BME280;3207;42.648;23.406;2022-12-29T04:46:37;100426.19;;;5.96;nan
6349;BME280;3207;42.648;23.406;2022-12-29T04:49:04;100415.97;;;5.93;nan
6349;BME280;3207;42.648;23.406;2022-12-29T04:51:33;100411.53;;;5.95;nan
6349;BME280;3207;42.648;23.406;2022-12-29T04:54:01;100403.75;;;5.95;nan
6349;BME280;3207;42.648;23.406;2022-12-29T04:56:27;100392.63;;;5.93;nan
6349;BME280;3207;42.648;23.406;2022-12-29T04:58:54;100400.41;;;5.93;nan
6349;BME280;3207;42.648;23.406;2022-12-29T05:01:22;100390.28;;;5.86;nan
6349;BME280;3207;42.648;23.406;2022-12-29T05:03:50;100403.25;;;5.86;nan
6349;BME280;3207;42.648;23.406;2022-12-29T05:06:17;100408.72;;;5.80;nan
6349;BME280;3207;42.648;23.406;2022-12-29T05:08:44;100402.97;;;5.74;nan
6349;BME280;3207;42.648;23.406;2022-12-29T05:11:11;100411.75;;;5.71;nan
6349;BME280;3207;42.648;23.406;2022-12-29T05:13:38;100414.56;;;5.67;nan
6349;BME280;3207;42.648;23.406;2022-12-29T05:16:05;100421.28;;;5.71;nan
6349;BME280;3207;42.648;23.406;2022-12-29T05:18:33;100436.13;;;5.67;nan
6349;BME280;3207;42.648;23.406;2022-12-29T05:21:00;100443.13;;;5.65;nan
6349;BME280;3207;42.648;23.406;2022-12-29T05:23:27;100444.06;;;5.64;nan
6349;BME280;3207;42.648;23.406;2022-12-29T05:25:54;100445.78;;;5.64;nan
6349;BME280;3207;42.648;23.406;2022-12-29T05:28:21;100442.44;;;5.62;nan
6349;BME280;3207;42.648;23.406;2022-12-29T05:30:48;100448.56;;;5.61;nan
6349;BME280;3207;42.648;23.406;2022-12-29T05:33:16;100437.25;;;5.62;nan
6349;BME280;3207;42.648;23.406;2022-12-29T05:35:44;100439.94;;;5.60;nan
6349;BME280;3207;42.648;23.406;2022-12-29T05:38:12;100433.91;;;5.60;nan
6349;BME280;3207;42.648;23.406;2022-12-29T05:40:38;100443.44;;;5.59;nan
6349;BME280;3207;42.648;23.406;2022-12-29T05:43:05;100444.28;;;5.60;nan
6349;BME280;3207;42.648;23.406;2022-12-29T05:45:32;100443.44;;;5.59;nan
6349;BME280;3207;42.648;23.406;2022-12-29T05:47:59;100436.56;;;5.58;nan
6349;BME280;3207;42.648;23.406;2022-12-29T05:50:26;100439.94;;;5.60;nan
6349;BME280;3207;42.648;23.406;2022-12-29T05:52:54;100444.28;;;5.60;nan
6349;BME280;3207;42.648;23.406;2022-12-29T05:55:21;100445.13;;;5.60;nan
6349;BME280;3207;42.648;23.406;2022-12-29T05:57:48;100417.16;;;5.48;nan
6349;BME280;3207;42.648;23.406;2022-12-29T06:00:15;100442.66;;;5.57;nan
6349;BME280;3207;42.648;23.406;2022-12-29T06:02:42;100440.91;;;5.58;nan
6349;BME280;3207;42.648;23.406;2022-12-29T06:05:09;100425.69;;;5.50;nan
6349;BME280;3207;42.648;23.406;2022-12-29T06:07:36;100440.91;;;5.58;nan
6349;BME280;3207;42.648;23.406;2022-12-29T06:10:05;100428.41;;;5.47;nan
6349;BME280;3207;42.648;23.406;2022-12-29T06:12:32;100440.31;;;5.51;nan
6349;BME280;3207;42.648;23.406;2022-12-29T06:14:59;100442.00;;;5.52;nan
6349;BME280;3207;42.648;23.406;2022-12-29T06:17:26;100441.03;;;5.55;nan
6349;BME280;3207;42.648;23.406;2022-12-29T06:19:53;100442.00;;;5.52;nan
6349;BME280;3207;42.648;23.406;2022-12-29T06:22:19;100443.06;;;5.48;nan
6349;BME280;3207;42.648;23.406;2022-12-29T06:24:46;100448.09;;;5.51;nan
6349;BME280;3207;42.648;23.406;2022-12-29T06:27:14;100431.28;;;5.41;nan
6349;BME280;3207;42.648;23.406;2022-12-29T06:29:41;100464.44;;;5.53;nan
6349;BME280;3207;42.648;23.406;2022-12-29T06:32:08;100465.44;;;5.50;nan
6349;BME280;3207;42.648;23.406;2022-12-29T06:34:35;100463.53;;;5.54;nan
6349;BME280;3207;42.648;23.406;2022-12-29T06:37:02;100478.03;;;5.58;nan
6349;BME280;3207;42.648;23.406;2022-12-29T06:39:29;100489.09;;;5.62;nan
6349;BME280;3207;42.648;23.406;2022-12-29T06:41:56;100472.44;;;5.67;nan
6349;BME280;3207;42.648;23.406;2022-12-29T06:44:28;100475.59;;;5.74;nan
6349;BME280;3207;42.648;23.406;2022-12-29T06:46:55;100477.69;;;5.84;nan
6349;BME280;3207;42.648;23.406;2022-12-29T06:49:22;100471.38;;;5.92;nan
6349;BME280;3207;42.648;23.406;2022-12-29T06:51:49;100469.38;;;5.97;nan
6349;BME280;3207;42.648;23.406;2022-12-29T06:54:16;100483.41;;;6.11;nan
6349;BME280;3207;42.648;23.406;2022-12-29T06:56:43;100494.06;;;6.24;nan
6349;BME280;3207;42.648;23.406;2022-12-29T06:59:10;100487.28;;;6.39;nan
6349;BME280;3207;42.648;23.406;2022-12-29T07:01:40;100481.38;;;6.54;nan
6349;BME280;3207;42.648;23.406;2022-12-29T07:04:07;100484.38;;;6.81;nan
6349;BME280;3207;42.648;23.406;2022-12-29T07:06:34;100484.97;;;7.03;nan
6349;BME280;3207;42.648;23.406;2022-12-29T07:09:02;100479.16;;;7.15;nan
6349;BME280;3207;42.648;23.406;2022-12-29T07:11:29;100484.38;;;7.15;nan
6349;BME280;3207;42.648;23.406;2022-12-29T07:13:56;100473.81;;;7.18;nan
6349;BME280;3207;42.648;23.406;2022-12-29T07:16:23;100480.53;;;7.22;nan
6349;BME280;3207;42.648;23.406;2022-12-29T07:18:51;100457.31;;;7.19;nan
6349;BME280;3207;42.648;23.406;2022-12-29T07:21:18;100491.97;;;7.35;nan
6349;BME280;3207;42.648;23.406;2022-12-29T07:23:45;100486.44;;;7.42;nan
6349;BME280;3207;42.648;23.406;2022-12-29T07:26:14;100481.44;;;7.54;nan
6349;BME280;3207;42.648;23.406;2022-12-29T07:28:43;100481.91;;;7.62;nan
6349;BME280;3207;42.648;23.406;2022-12-29T07:31:14;100470.31;;;7.68;nan
6349;BME280;3207;42.648;23.406;2022-12-29T07:33:42;100469.91;;;7.76;nan
6349;BME280;3207;42.648;23.406;2022-12-29T07:36:11;100492.09;;;7.83;nan
6349;BME280;3207;42.648;23.406;2022-12-29T07:38:38;100500.56;;;7.86;nan
6349;BME280;3207;42.648;23.406;2022-12-29T07:41:05;100492.44;;;7.92;nan
6349;BME280;3207;42.648;23.406;2022-12-29T07:43:32;100484.72;;;8.22;nan
6349;BME280;3207;42.648;23.406;2022-12-29T07:45:59;100487.59;;;9.23;nan
6349;BME280;3207;42.648;23.406;2022-12-29T07:48:26;100493.28;;;10.01;nan
6349;BME280;3207;42.648;23.406;2022-12-29T07:50:53;100496.66;;;11.23;nan
6349;BME280;3207;42.648;23.406;2022-12-29T07:53:22;100498.78;;;12.41;nan
6349;BME280;3207;42.648;23.406;2022-12-29T07:55:49;100496.03;;;14.26;nan
6349;BME280;3207;42.648;23.406;2022-12-29T07:58:16;100496.03;;;16.13;nan
6349;BME280;3207;42.648;23.406;2022-12-29T08:00:44;100502.94;;;17.78;nan
6349;BME280;3207;42.648;23.406;2022-12-29T08:03:10;100502.44;;;19.26;nan
6349;BME280;3207;42.648;23.406;2022-12-29T08:05:37;100507.38;;;20.57;nan
6349;BME280;3207;42.648;23.406;2022-12-29T08:08:04;100504.41;;;21.49;nan
6349;BME280;3207;42.648;23.406;2022-12-29T08:10:33;100492.81;;;22.51;nan
6349;BME280;3207;42.648;23.406;2022-12-29T08:12:59;100484.41;;;23.60;nan
6349;BME280;3207;42.648;23.406;2022-12-29T08:15:26;100469.00;;;24.42;nan
6349;BME280;3207;42.648;23.406;2022-12-29T08:17:53;100482.34;;;24.99;nan
6349;BME280;3207;42.648;23.406;2022-12-29T08:20:20;100486.84;;;24.77;nan
6349;BME280;3207;42.648;23.406;2022-12-29T08:22:47;100487.53;;;25.63;nan
6349;BME280;3207;42.648;23.406;2022-12-29T08:25:14;100512.09;;;26.88;nan
6349;BME280;3207;42.648;23.406;2022-12-29T08:27:42;100531.28;;;27.78;nan
6349;BME280;3207;42.648;23.406;2022-12-29T08:30:10;100531.81;;;28.51;nan
6349;BME280;3207;42.648;23.406;2022-12-29T08:32:37;100537.72;;;29.29;nan
6349;BME280;3207;42.648;23.406;2022-12-29T08:35:04;100528.34;;;29.99;nan
6349;BME280;3207;42.648;23.406;2022-12-29T08:37:32;100544.13;;;30.62;nan
6349;BME280;3207;42.648;23.406;2022-12-29T08:39:59;100524.09;;;31.23;nan
6349;BME280;3207;42.648;23.406;2022-12-29T08:42:28;100537.13;;;31.84;nan
6349;BME280;3207;42.648;23.406;2022-12-29T08:44:57;100542.84;;;32.51;nan
6349;BME280;3207;42.648;23.406;2022-12-29T08:47:24;100530.94;;;32.81;nan
6349;BME280;3207;42.648;23.406;2022-12-29T08:49:51;100531.34;;;33.39;nan
6349;BME280;3207;42.648;23.406;2022-12-29T08:52:18;100522.59;;;34.14;nan
6349;BME280;3207;42.648;23.406;2022-12-29T08:54:45;100533.16;;;34.11;nan
6349;BME280;3207;42.648;23.406;2022-12-29T08:57:12;100518.56;;;33.01;nan
6349;BME280;3207;42.648;23.406;2022-12-29T08:59:39;100508.38;;;32.47;nan
6349;BME280;3207;42.648;23.406;2022-12-29T09:02:10;100498.97;;;32.09;nan
6349;BME280;3207;42.648;23.406;2022-12-29T09:04:37;100506.69;;;32.74;nan
6349;BME280;3207;42.648;23.406;2022-12-29T09:07:04;100498.66;;;32.62;nan
6349;BME280;3207;42.648;23.406;2022-12-29T09:09:31;100508.94;;;33.11;nan
6349;BME280;3207;42.648;23.406;2022-12-29T09:11:58;100504.75;;;34.40;nan
6349;BME280;3207;42.648;23.406;2022-12-29T09:14:25;100503.81;;;35.63;nan
6349;BME280;3207;42.648;23.406;2022-12-29T09:16:52;100506.19;;;36.06;nan
6349;BME280;3207;42.648;23.406;2022-12-29T09:19:37;100503.44;;;35.96;nan
6349;BME280;3207;42.648;23.406;2022-12-29T09:22:04;100513.78;;;35.99;nan
6349;BME280;3207;42.648;23.406;2022-12-29T09:24:31;100491.03;;;36.36;nan
6349;BME280;3207;42.648;23.406;2022-12-29T09:26:58;100511.25;;;37.26;nan
6349;BME280;3207;42.648;23.406;2022-12-29T09:29:24;100514.06;;;37.95;nan
6349;BME280;3207;42.648;23.406;2022-12-29T09:31:51;100505.50;;;38.17;nan
6349;BME280;3207;42.648;23.406;2022-12-29T09:34:18;100508.81;;;38.04;nan
6349;BME280;3207;42.648;23.406;2022-12-29T09:36:48;100510.44;;;37.10;nan
6349;BME280;3207;42.648;23.406;2022-12-29T09:39:15;100506.88;;;36.99;nan
6349;BME280;3207;42.648;23.406;2022-12-29T09:42:00;100505.19;;;37.59;nan
6349;BME280;3207;42.648;23.406;2022-12-29T09:44:39;100510.91;;;38.27;nan
6349;BME280;3207;42.648;23.406;2022-12-29T09:47:14;100516.75;;;38.89;nan
6349;BME280;3207;42.648;23.406;2022-12-29T09:49:44;100508.47;;;39.57;nan
6349;BME280;3207;42.648;23.406;2022-12-29T09:52:16;100482.50;;;39.97;nan
6349;BME280;3207;42.648;23.406;2022-12-29T09:54:51;100485.47;;;40.19;nan
6349;BME280;3207;42.648;23.406;2022-12-29T09:57:23;100505.06;;;40.31;nan
6349;BME280;3207;42.648;23.406;2022-12-29T09:59:54;100503.13;;;40.13;nan
6349;BME280;3207;42.648;23.406;2022-12-29T10:02:37;100492.84;;;39.04;nan
6349;BME280;3207;42.648;23.406;2022-12-29T10:05:15;100484.34;;;37.84;nan
6349;BME280;3207;42.648;23.406;2022-12-29T10:07:50;100478.78;;;38.14;nan
6349;BME280;3207;42.648;23.406;2022-12-29T10:10:27;100486.28;;;39.05;nan
6349;BME280;3207;42.648;23.406;2022-12-29T10:13:06;100495.09;;;39.98;nan
6349;BME280;3207;42.648;23.406;2022-12-29T10:15:47;100481.00;;;40.47;nan
6349;BME280;3207;42.648;23.406;2022-12-29T10:18:50;100479.00;;;40.85;nan
6349;BME280;3207;42.648;23.406;2022-12-29T10:21:33;100485.09;;;40.63;nan
6349;BME280;3207;42.648;23.406;2022-12-29T10:24:07;100479.28;;;38.89;nan
6349;BME280;3207;42.648;23.406;2022-12-29T10:26:40;100471.28;;;37.76;nan
6349;BME280;3207;42.648;23.406;2022-12-29T10:29:15;100448.34;;;37.82;nan
6349;BME280;3207;42.648;23.406;2022-12-29T10:31:44;100466.91;;;37.74;nan
6349;BME280;3207;42.648;23.406;2022-12-29T10:34:18;100458.97;;;38.32;nan
6349;BME280;3207;42.648;23.406;2022-12-29T10:36:48;100451.00;;;38.75;nan
6349;BME280;3207;42.648;23.406;2022-12-29T10:39:22;100450.53;;;37.74;nan
6349;BME280;3207;42.648;23.406;2022-12-29T10:41:53;100446.94;;;36.74;nan
6349;BME280;3207;42.648;23.406;2022-12-29T10:44:21;100448.25;;;37.02;nan
6349;BME280;3207;42.648;23.406;2022-12-29T10:46:55;100459.31;;;35.89;nan
6349;BME280;3207;42.648;23.406;2022-12-29T10:49:25;100455.78;;;34.08;nan
6349;BME280;3207;42.648;23.406;2022-12-29T10:52:03;100440.81;;;31.83;nan
6349;BME280;3207;42.648;23.406;2022-12-29T10:54:36;100443.75;;;29.94;nan
6349;BME280;3207;42.648;23.406;2022-12-29T10:57:08;100440.38;;;28.13;nan
6349;BME280;3207;42.648;23.406;2022-12-29T10:59:39;100418.09;;;26.22;nan
6349;BME280;3207;42.648;23.406;2022-12-29T11:02:22;100431.56;;;24.85;nan
6349;BME280;3207;42.648;23.406;2022-12-29T11:04:57;100431.03;;;23.60;nan
6349;BME280;3207;42.648;23.406;2022-12-29T11:07:28;100422.78;;;22.42;nan
6349;BME280;3207;42.648;23.406;2022-12-29T11:10:16;100426.25;;;21.42;nan
6349;BME280;3207;42.648;23.406;2022-12-29T11:12:54;100416.22;;;20.80;nan
6349;BME280;3207;42.648;23.406;2022-12-29T11:15:22;100413.69;;;20.22;nan
6349;BME280;3207;42.648;23.406;2022-12-29T11:17:50;100397.59;;;19.65;nan
6349;BME280;3207;42.648;23.406;2022-12-29T11:20:29;100387.47;;;19.27;nan
6349;BME280;3207;42.648;23.406;2022-12-29T11:22:56;100403.31;;;19.19;nan
6349;BME280;3207;42.648;23.406;2022-12-29T11:25:25;100406.38;;;19.58;nan
6349;BME280;3207;42.648;23.406;2022-12-29T11:27:56;100374.72;;;21.82;nan
6349;BME280;3207;42.648;23.406;2022-12-29T11:30:26;100395.16;;;24.62;nan
6349;BME280;3207;42.648;23.406;2022-12-29T11:32:54;100404.78;;;26.95;nan
6349;BME280;3207;42.648;23.406;2022-12-29T11:35:33;100398.16;;;26.58;nan
6349;BME280;3207;42.648;23.406;2022-12-29T11:38:02;100352.75;;;26.89;nan
6349;BME280;3207;42.648;23.406;2022-12-29T11:40:31;100397.88;;;27.90;nan
6349;BME280;3207;42.648;23.406;2022-12-29T11:43:01;100394.31;;;27.64;nan
6349;BME280;3207;42.648;23.406;2022-12-29T11:45:30;100388.13;;;27.57;nan
6349;BME280;3207;42.648;23.406;2022-12-29T11:48:01;100391.97;;;29.73;nan
6349;BME280;3207;42.648;23.406;2022-12-29T11:50:34;100400.34;;;32.17;nan
6349;BME280;3207;42.648;23.406;2022-12-29T11:53:05;100387.72;;;33.66;nan
6349;BME280;3207;42.648;23.406;2022-12-29T11:55:38;100400.38;;;34.31;nan
6349;BME280;3207;42.648;23.406;2022-12-29T11:58:05;100402.25;;;35.00;nan
6349;BME280;3207;42.648;23.406;2022-12-29T12:00:34;100408.88;;;34.45;nan
6349;BME280;3207;42.648;23.406;2022-12-29T12:03:12;100361.66;;;32.66;nan
6349;BME280;3207;42.648;23.406;2022-12-29T12:05:44;100375.97;;;31.08;nan
6349;BME280;3207;42.648;23.406;2022-12-29T12:08:31;100383.00;;;29.43;nan
6349;BME280;3207;42.648;23.406;2022-12-29T12:11:06;100375.41;;;27.84;nan
6349;BME280;3207;42.648;23.406;2022-12-29T12:13:43;100383.72;;;26.52;nan
6349;BME280;3207;42.648;23.406;2022-12-29T12:16:15;100372.03;;;25.38;nan
6349;BME280;3207;42.648;23.406;2022-12-29T12:18:47;100360.56;;;24.33;nan
6349;BME280;3207;42.648;23.406;2022-12-29T12:21:29;100364.75;;;23.49;nan
6349;BME280;3207;42.648;23.406;2022-12-29T12:27:12;100344.34;;;21.68;nan
6349;BME280;3207;42.648;23.406;2022-12-29T12:29:46;100359.78;;;21.34;nan
6349;BME280;3207;42.648;23.406;2022-12-29T12:32:20;100355.25;;;20.87;nan
6349;BME280;3207;42.648;23.406;2022-12-29T12:34:50;100355.25;;;20.14;nan
6349;BME280;3207;42.648;23.406;2022-12-29T12:37:36;100350.84;;;19.56;nan
6349;BME280;3207;42.648;23.406;2022-12-29T12:40:33;100360.63;;;19.30;nan
6349;BME280;3207;42.648;23.406;2022-12-29T12:46:01;100355.22;;;18.18;nan
6349;BME280;3207;42.648;23.406;2022-12-29T12:48:50;100348.34;;;17.90;nan
6349;BME280;3207;42.648;23.406;2022-12-29T12:51:31;100331.78;;;17.61;nan
6349;BME280;3207;42.648;23.406;2022-12-29T12:54:15;100353.69;;;17.53;nan
6349;BME280;3207;42.648;23.406;2022-12-29T12:56:56;100354.84;;;17.13;nan
6349;BME280;3207;42.648;23.406;2022-12-29T12:59:36;100349.75;;;17.02;nan
6349;BME280;3207;42.648;23.406;2022-12-29T13:02:17;100345.78;;;16.69;nan
6349;BME280;3207;42.648;23.406;2022-12-29T13:05:04;100356.91;;;16.63;nan
6349;BME280;3207;42.648;23.406;2022-12-29T13:07:44;100349.81;;;16.44;nan
6349;BME280;3207;42.648;23.406;2022-12-29T13:10:21;100339.13;;;16.46;nan
6349;BME280;3207;42.648;23.406;2022-12-29T13:12:54;100353.03;;;16.48;nan
6349;BME280;3207;42.648;23.406;2022-12-29T13:15:39;100344.25;;;16.57;nan
6349;BME280;3207;42.648;23.406;2022-12-29T13:18:18;100335.63;;;16.74;nan
6349;BME280;3207;42.648;23.406;2022-12-29T13:20:53;100340.44;;;16.98;nan
6349;BME280;3207;42.648;23.406;2022-12-29T13:23:26;100339.22;;;17.20;nan
6349;BME280;3207;42.648;23.406;2022-12-29T13:26:02;100332.88;;;17.40;nan
6349;BME280;3207;42.648;23.406;2022-12-29T13:28:41;100335.25;;;17.61;nan
6349;BME280;3207;42.648;23.406;2022-12-29T13:31:18;100341.75;;;17.76;nan
6349;BME280;3207;42.648;23.406;2022-12-29T13:33:52;100346.34;;;17.92;nan
6349;BME280;3207;42.648;23.406;2022-12-29T13:36:25;100339.56;;;18.07;nan
6349;BME280;3207;42.648;23.406;2022-12-29T13:39:01;100345.38;;;18.28;nan
6349;BME280;3207;42.648;23.406;2022-12-29T13:41:31;100340.16;;;18.37;nan
6349;BME280;3207;42.648;23.406;2022-12-29T13:44:01;100331.75;;;18.41;nan
6349;BME280;3207;42.648;23.406;2022-12-29T13:46:33;100345.06;;;18.49;nan
6349;BME280;3207;42.648;23.406;2022-12-29T13:49:04;100326.75;;;18.38;nan
6349;BME280;3207;42.648;23.406;2022-12-29T13:51:34;100353.91;;;18.58;nan
6349;BME280;3207;42.648;23.406;2022-12-29T13:54:11;100343.16;;;18.59;nan
6349;BME280;3207;42.648;23.406;2022-12-29T13:56:47;100355.78;;;18.48;nan
6349;BME280;3207;42.648;23.406;2022-12-29T13:59:20;100341.06;;;18.27;nan
6349;BME280;3207;42.648;23.406;2022-12-29T14:01:58;100349.53;;;18.31;nan